Terminal Aerodrome Forecast
Issued by NWS Austin/San Antonio, TX

Home | Current Version | Previous Version | Text Only | Print | Product List | Glossary On
Versions: 1 2 3 4 5 6 7 8 9 10 11 12 13 14 15 16 17
492
FTUS44 KEWX 201204 AAA
TAFSAT
TAF AMD
KSAT 201204Z 2012/2118 VRB03KT P6SM BKN008 BKN040 OVC250
     FM201600 15007KT P6SM BKN012 BKN040
     FM201900 16009KT P6SM BKN040
     FM210700 16007KT P6SM OVC010
     FM211700 16009KT P6SM BKN022=

USA.gov is the U.S. government's official web portal to all federal, state and local government web resources and services.